Pays
Station

 

Conditions  météo  pour  Battle Creek, Kellogg Airport  -  Etats-Unis    Etats-Unis

  
10 °C
    
 
 

METAR pour Battle Creek, Kellogg Airport :

KBTL 230353Z AUTO 17003KT 10SM CLR 10/08 A3023 RMK AO2 SLP239 T01000078

 

Voici le bulletin pour Battle Creek, Kellogg Airport - Etats-Unis.
 
Le bulletin a été fait il y a 51 minutes, à 03:53 UTC .
Le vent soufflait à la vitesse de 1.5 mètres par seconde de Sud (170°).
 
La température était de 10 °C, avec un point de rosée à 8 °C.
La pression atmosphérique était de 1024 hPa.
L'humidité relative était de 87.4%.
 
Le ciel était clair.
 
La visibilité globale était de 16.1 kilomètres.
 

 
 
 

Pays :   A   B   C   D   E   F   G   H   I   J   K   L   M   N   O   P   Q   R   S   T   U   V   W   Y   Z

 

Partenaires :  Info Météo avec Met'info
Météo Marine avec MeteoMarine.net
Infos Site  |  Infos Légales  |  Crédits  |  Confidentialité
Contactez-nous  |  Ajouter aux favoris
© 2013-2018 METAR - Tous droits réservés